Denver, Colorado
Traffic Map
Current Weather Conditions
Denver, Colorado
Few Clouds
Few Clouds
29°
Feels Like: 29°
Wind Chill: 29° Ceiling: Unl
Heat Index: 29° Visibility: 10mi
Dew Point: 10° Wind: 7mph
Humidity: 30% Direction: 60° (ENE)
Pressure: 30.36in Gusts: 0mph
Raw Report DataKBKF 221858Z 06006KT 10SM FEW070 FEW110 29/10 A3036 RMK AO2A SLP199 T02910101
Traffic Incident Summary
Active as of:
Severity:
Category:
InformationThere was an issue retrieving the traffic information for this location. Please try a different location or try again shortly.
Advertisements
Track Severe Weather on mobile